createdAt,value
2022-09-28T00:00:41.862Z,9.00
2022-09-28T00:03:09.139Z,9.00
2022-09-28T00:05:36.173Z,9.10
2022-09-28T00:08:03.177Z,9.00
2022-09-28T00:10:30.157Z,8.90
2022-09-28T00:13:00.529Z,9.00
2022-09-28T00:15:27.550Z,8.90
2022-09-28T00:17:54.615Z,8.90
2022-09-28T00:20:22.635Z,8.90
2022-09-28T00:22:49.651Z,8.80
2022-09-28T00:25:16.903Z,8.90
2022-09-28T00:27:49.160Z,8.90
2022-09-28T00:30:16.403Z,8.90
2022-09-28T00:32:44.174Z,8.90
2022-09-28T00:35:11.230Z,9.00
2022-09-28T00:37:38.311Z,9.00
2022-09-28T00:40:05.642Z,8.90
2022-09-28T00:42:32.833Z,8.80
2022-09-28T00:44:59.858Z,8.90
2022-09-28T00:47:37.932Z,8.80
2022-09-28T00:50:11.121Z,8.80
2022-09-28T00:52:44.251Z,8.70
2022-09-28T00:55:31.525Z,8.70
2022-09-28T00:57:58.545Z,8.60
2022-09-28T01:00:25.675Z,8.60
2022-09-28T01:02:53.029Z,8.60
2022-09-28T01:05:20.186Z,8.60
2022-09-28T01:07:47.193Z,8.60
2022-09-28T01:10:14.349Z,8.50
2022-09-28T01:12:41.479Z,8.50
2022-09-28T01:15:08.702Z,8.50
2022-09-28T01:17:54.540Z,8.50
2022-09-28T01:20:41.177Z,8.50
2022-09-28T01:23:13.080Z,8.50
2022-09-28T01:25:45.545Z,8.40
2022-09-28T01:28:14.489Z,8.40
2022-09-28T01:31:00.241Z,8.40
2022-09-28T01:33:28.347Z,8.40
2022-09-28T01:35:57.171Z,8.50
2022-09-28T01:38:24.176Z,8.50
2022-09-28T01:40:51.708Z,8.50
2022-09-28T01:43:21.955Z,8.50
2022-09-28T01:45:50.066Z,8.50
2022-09-28T01:48:18.908Z,8.50
2022-09-28T01:50:46.301Z,8.50
2022-09-28T01:53:21.080Z,8.50
2022-09-28T01:55:49.316Z,8.50
2022-09-28T01:58:18.947Z,8.60
2022-09-28T02:00:48.167Z,8.60
2022-09-28T02:03:21.408Z,8.60
2022-09-28T02:06:05.871Z,8.60
2022-09-28T02:08:33.714Z,8.70
2022-09-28T02:11:04.013Z,8.70
2022-09-28T02:13:38.902Z,8.70
2022-09-28T02:16:08.996Z,8.70
2022-09-28T02:18:36.156Z,8.70
2022-09-28T02:21:06.408Z,8.70
2022-09-28T02:23:33.901Z,8.70
2022-09-28T02:26:01.823Z,8.60
2022-09-28T02:28:29.104Z,8.70
2022-09-28T02:30:56.094Z,8.70
2022-09-28T02:33:24.636Z,8.80
2022-09-28T02:35:51.675Z,8.80
2022-09-28T02:38:20.357Z,8.70
2022-09-28T02:40:51.380Z,8.70
2022-09-28T02:43:25.129Z,8.70
2022-09-28T02:45:59.081Z,8.70
2022-09-28T02:48:43.762Z,8.70
2022-09-28T02:51:12.761Z,8.60
2022-09-28T02:53:44.909Z,8.60
2022-09-28T02:56:18.311Z,8.60
2022-09-28T02:58:45.307Z,8.60
2022-09-28T03:01:15.907Z,8.60
2022-09-28T03:03:48.376Z,8.60
2022-09-28T03:06:21.914Z,8.60
2022-09-28T03:09:02.133Z,8.60
2022-09-28T03:11:43.715Z,8.60
2022-09-28T03:14:10.855Z,8.60
2022-09-28T03:16:51.849Z,8.70
2022-09-28T03:19:22.455Z,8.70
2022-09-28T03:21:51.247Z,8.70
2022-09-28T03:24:18.499Z,8.70
2022-09-28T03:26:45.526Z,8.70
2022-09-28T03:29:13.823Z,8.70
2022-09-28T03:31:43.892Z,8.70
2022-09-28T03:34:11.011Z,8.80
2022-09-28T03:36:38.045Z,8.80
2022-09-28T03:39:05.169Z,8.90
2022-09-28T03:41:32.210Z,8.90
2022-09-28T03:43:59.239Z,8.90
2022-09-28T03:46:28.459Z,9.00
2022-09-28T03:48:59.844Z,9.00
2022-09-28T03:51:29.263Z,8.90
2022-09-28T03:53:56.266Z,9.00
2022-09-28T03:56:23.418Z,8.90
2022-09-28T03:58:50.479Z,8.90
2022-09-28T04:01:18.045Z,8.90
2022-09-28T04:03:47.049Z,8.90
2022-09-28T04:06:14.119Z,8.80
2022-09-28T04:08:41.210Z,8.80
2022-09-28T04:11:09.021Z,8.80
2022-09-28T04:13:37.050Z,8.70
2022-09-28T04:16:05.317Z,8.70
2022-09-28T04:18:35.145Z,8.70
2022-09-28T04:21:08.928Z,8.70
2022-09-28T04:23:40.943Z,8.70
2022-09-28T04:26:09.246Z,8.70
2022-09-28T04:28:55.071Z,8.60
2022-09-28T04:31:22.570Z,8.60
2022-09-28T04:33:49.662Z,8.60
2022-09-28T04:36:17.807Z,8.60
2022-09-28T04:38:53.464Z,8.60
2022-09-28T04:41:25.166Z,8.70
2022-09-28T04:43:52.208Z,8.70
2022-09-28T04:46:20.176Z,8.60
2022-09-28T04:49:01.518Z,8.60
2022-09-28T04:51:48.222Z,8.60
2022-09-28T04:54:15.280Z,8.70
2022-09-28T04:56:42.366Z,8.60
2022-09-28T04:59:10.064Z,8.70
2022-09-28T05:01:37.732Z,8.70
2022-09-28T05:04:25.933Z,8.70
2022-09-28T05:07:11.672Z,8.70
2022-09-28T05:09:39.062Z,8.80
2022-09-28T05:12:06.187Z,8.90
2022-09-28T05:14:33.191Z,8.90
2022-09-28T05:17:00.327Z,8.90
2022-09-28T05:19:37.958Z,8.90
2022-09-28T05:22:06.091Z,8.90
2022-09-28T05:24:38.385Z,8.90
2022-09-28T05:27:05.535Z,8.90
2022-09-28T05:29:32.896Z,8.90
2022-09-28T05:32:18.133Z,8.90
2022-09-28T05:34:56.217Z,8.70
2022-09-28T05:37:27.347Z,8.70
2022-09-28T05:39:54.374Z,8.60
2022-09-28T05:42:21.386Z,8.60
2022-09-28T05:44:48.412Z,8.60
2022-09-28T05:47:15.510Z,8.50
2022-09-28T05:49:43.608Z,8.50
2022-09-28T05:52:12.030Z,8.60
2022-09-28T05:54:39.072Z,8.60
2022-09-28T05:57:07.117Z,8.60
2022-09-28T05:59:35.153Z,8.50
2022-09-28T06:02:02.901Z,8.50
2022-09-28T06:04:30.018Z,8.50
2022-09-28T06:06:57.195Z,8.60
2022-09-28T06:09:26.062Z,8.50
2022-09-28T06:11:57.765Z,8.50
2022-09-28T06:14:32.238Z,8.40
2022-09-28T06:16:59.295Z,8.40
2022-09-28T06:19:26.413Z,8.40
2022-09-28T06:22:11.838Z,8.40
2022-09-28T06:24:45.730Z,8.50
2022-09-28T06:27:12.822Z,8.50
2022-09-28T06:29:39.831Z,8.50
2022-09-28T06:32:07.531Z,8.50
2022-09-28T06:34:36.083Z,8.50
2022-09-28T06:37:04.582Z,8.50
2022-09-28T06:39:32.080Z,8.50
2022-09-28T06:42:03.165Z,8.40
2022-09-28T06:44:50.367Z,8.50
2022-09-28T06:47:44.048Z,8.40
2022-09-28T06:50:17.489Z,8.50
2022-09-28T06:52:58.248Z,8.50
2022-09-28T06:55:44.320Z,8.40
2022-09-28T06:58:12.420Z,8.50
2022-09-28T07:00:39.574Z,8.60
2022-09-28T07:03:08.733Z,8.60
2022-09-28T07:05:52.560Z,8.60
2022-09-28T07:08:39.842Z,8.60
2022-09-28T07:11:26.878Z,8.70
2022-09-28T07:14:22.456Z,8.70
2022-09-28T07:17:12.638Z,8.80
2022-09-28T07:19:41.408Z,8.90
2022-09-28T07:22:08.419Z,8.80
2022-09-28T07:24:35.449Z,8.70
2022-09-28T07:27:22.548Z,8.80
2022-09-28T07:30:12.971Z,8.80
2022-09-28T07:33:01.727Z,8.90
2022-09-28T07:35:37.730Z,8.90
2022-09-28T07:38:05.721Z,8.90
2022-09-28T07:40:52.062Z,8.80
2022-09-28T07:43:23.230Z,8.90
2022-09-28T07:45:52.911Z,8.90
2022-09-28T07:48:20.262Z,8.90
2022-09-28T07:51:14.928Z,8.90
2022-09-28T07:53:47.984Z,9.00
2022-09-28T07:56:17.304Z,8.90
2022-09-28T07:59:07.736Z,8.90
2022-09-28T08:01:40.503Z,8.90
2022-09-28T08:04:10.585Z,8.90
2022-09-28T08:06:40.713Z,8.90
2022-09-28T08:09:09.971Z,9.00
2022-09-28T08:12:12.140Z,9.00
2022-09-28T08:14:56.634Z,9.00
2022-09-28T08:17:35.294Z,9.00
2022-09-28T08:20:24.851Z,9.00
2022-09-28T08:22:53.042Z,9.10
2022-09-28T08:25:20.966Z,9.10
2022-09-28T08:27:48.090Z,9.10
2022-09-28T08:30:15.238Z,9.20
2022-09-28T08:32:51.857Z,9.20
2022-09-28T08:35:37.328Z,9.20
2022-09-28T08:38:31.199Z,9.20
2022-09-28T08:41:39.527Z,9.30
2022-09-28T08:44:25.134Z,9.30
2022-09-28T08:47:05.981Z,9.40
2022-09-28T08:50:01.599Z,9.40
2022-09-28T08:52:53.139Z,9.40
2022-09-28T08:55:49.837Z,9.40
2022-09-28T08:58:17.688Z,9.40
2022-09-28T09:00:48.608Z,9.40
2022-09-28T09:03:18.111Z,9.40
2022-09-28T09:06:00.331Z,9.40
2022-09-28T09:09:09.113Z,9.40
2022-09-28T09:11:44.299Z,9.50
2022-09-28T09:14:11.338Z,9.50
2022-09-28T09:16:42.803Z,9.50
2022-09-28T09:19:48.897Z,9.30
2022-09-28T09:22:34.873Z,9.00
2022-09-28T09:25:08.217Z,8.80
2022-09-28T09:27:41.527Z,8.60
2022-09-28T09:30:09.408Z,8.60
2022-09-28T09:32:47.390Z,8.60
2022-09-28T09:35:14.917Z,8.50
2022-09-28T09:38:16.772Z,8.50
2022-09-28T09:41:08.864Z,8.50
2022-09-28T09:43:58.997Z,8.40
2022-09-28T09:46:44.253Z,8.50
2022-09-28T09:49:25.370Z,8.50
2022-09-28T09:51:57.121Z,8.60
2022-09-28T09:54:27.231Z,8.70
2022-09-28T09:56:57.549Z,8.70
2022-09-28T09:59:46.383Z,8.80
2022-09-28T10:02:25.417Z,8.80
2022-09-28T10:05:21.659Z,8.80
2022-09-28T10:07:52.594Z,8.80
2022-09-28T10:10:25.298Z,8.80
2022-09-28T10:12:54.063Z,8.80
2022-09-28T10:15:25.316Z,8.80
2022-09-28T10:18:15.596Z,8.90
2022-09-28T10:21:01.308Z,8.70
2022-09-28T10:23:36.123Z,8.80
2022-09-28T10:26:04.060Z,8.80
2022-09-28T10:28:50.526Z,8.80
2022-09-28T10:31:36.463Z,8.90
2022-09-28T10:34:05.942Z,8.80
2022-09-28T10:36:38.355Z,8.80
2022-09-28T10:39:07.338Z,8.80
2022-09-28T10:41:35.130Z,8.80
2022-09-28T10:44:12.867Z,8.80
2022-09-28T10:47:01.280Z,8.90
2022-09-28T10:49:56.706Z,9.00
2022-09-28T10:53:07.986Z,8.90
2022-09-28T10:56:05.110Z,9.00
2022-09-28T10:58:40.431Z,9.00
2022-09-28T11:01:11.114Z,9.10
2022-09-28T11:03:52.300Z,9.10
2022-09-28T11:06:28.667Z,9.10
2022-09-28T11:09:00.774Z,9.10
2022-09-28T11:11:32.095Z,9.10
2022-09-28T11:14:04.371Z,9.10
2022-09-28T11:16:35.889Z,9.20
2022-09-28T11:19:05.021Z,9.20
2022-09-28T11:21:40.176Z,9.30
2022-09-28T11:24:20.560Z,9.30
2022-09-28T11:26:52.850Z,9.30
2022-09-28T11:29:24.366Z,9.20
2022-09-28T11:32:07.566Z,9.20
2022-09-28T11:35:05.740Z,9.20
2022-09-28T11:37:42.762Z,9.20
2022-09-28T11:40:25.672Z,9.30
2022-09-28T11:43:01.926Z,9.40
2022-09-28T11:45:34.772Z,9.40
2022-09-28T11:48:02.724Z,9.40
2022-09-28T11:50:39.837Z,9.50
2022-09-28T11:53:22.304Z,9.50
2022-09-28T11:55:58.038Z,9.50
2022-09-28T11:58:25.102Z,9.50
2022-09-28T12:01:00.115Z,9.50
2022-09-28T12:03:42.156Z,9.50
2022-09-28T12:06:11.566Z,9.50
2022-09-28T12:08:44.603Z,9.50
2022-09-28T12:11:38.963Z,9.50
2022-09-28T12:14:10.458Z,9.60
2022-09-28T12:17:04.332Z,9.60
2022-09-28T12:19:32.124Z,9.60
2022-09-28T12:22:08.898Z,9.70
2022-09-28T12:24:42.600Z,9.60
2022-09-28T12:27:09.607Z,9.70
2022-09-28T12:29:40.962Z,9.80
2022-09-28T12:32:11.709Z,9.90
2022-09-28T12:34:40.660Z,9.90
2022-09-28T12:37:21.736Z,9.90
2022-09-28T12:40:07.865Z,9.90
2022-09-28T12:42:55.278Z,9.80
2022-09-28T12:46:06.764Z,10.00
2022-09-28T12:48:31.194Z,10.00
2022-09-28T12:51:01.554Z,10.10
2022-09-28T12:53:47.215Z,10.10
2022-09-28T12:56:20.975Z,10.10
2022-09-28T12:58:53.985Z,10.10
2022-09-28T13:01:21.010Z,10.20
2022-09-28T13:03:48.073Z,10.20
2022-09-28T13:06:16.042Z,10.20
2022-09-28T13:08:56.235Z,10.10
2022-09-28T13:11:33.188Z,10.10
2022-09-28T13:14:01.771Z,9.90
2022-09-28T13:16:37.491Z,9.80
2022-09-28T13:19:07.506Z,9.80
2022-09-28T13:21:37.699Z,9.70
2022-09-28T13:24:27.767Z,9.50
2022-09-28T13:26:52.279Z,9.50
2022-09-28T13:29:20.071Z,9.40
2022-09-28T13:31:50.588Z,9.40
2022-09-28T13:34:24.930Z,9.30
2022-09-28T13:37:11.149Z,9.30
2022-09-28T13:39:46.455Z,9.30
2022-09-28T13:42:29.337Z,9.40
2022-09-28T13:45:00.131Z,9.40
2022-09-28T13:47:27.129Z,9.30
2022-09-28T13:50:00.482Z,9.30
2022-09-28T13:52:32.352Z,9.30
2022-09-28T13:55:18.202Z,9.20
2022-09-28T13:57:47.134Z,9.30
2022-09-28T14:00:26.314Z,9.30
2022-09-28T14:02:55.822Z,9.20
2022-09-28T14:05:22.838Z,9.30
2022-09-28T14:08:08.526Z,9.20
2022-09-28T14:10:51.918Z,9.30
2022-09-28T14:13:37.887Z,9.30
2022-09-28T14:16:23.974Z,9.20
2022-09-28T14:18:52.699Z,9.20
2022-09-28T14:21:19.710Z,9.10
2022-09-28T14:23:50.560Z,9.10
2022-09-28T14:26:41.554Z,9.10
2022-09-28T14:29:10.123Z,9.00
2022-09-28T14:31:46.600Z,9.10
2022-09-28T14:34:24.001Z,9.10
2022-09-28T14:37:09.822Z,9.00
2022-09-28T14:39:55.709Z,9.10
2022-09-28T14:42:23.655Z,9.10
2022-09-28T14:45:06.326Z,9.00
2022-09-28T14:47:35.313Z,9.00
2022-09-28T14:50:14.792Z,9.10
2022-09-28T14:52:43.388Z,9.20
2022-09-28T14:55:14.229Z,9.10
2022-09-28T14:57:41.568Z,9.10
2022-09-28T15:00:24.374Z,9.10
2022-09-28T15:02:52.614Z,9.10
2022-09-28T15:05:22.608Z,9.10
2022-09-28T15:07:51.697Z,9.00
2022-09-28T15:10:28.129Z,9.00
2022-09-28T15:12:56.034Z,9.00
2022-09-28T15:15:42.207Z,9.10
2022-09-28T15:18:33.195Z,9.00
2022-09-28T15:21:00.227Z,9.00
2022-09-28T15:23:34.571Z,9.00
2022-09-28T15:26:01.754Z,9.00
2022-09-28T15:28:28.789Z,9.10
2022-09-28T15:30:59.577Z,9.00
2022-09-28T15:33:46.081Z,9.00
2022-09-28T15:36:15.206Z,9.10
2022-09-28T15:38:42.206Z,9.00
2022-09-28T15:41:10.231Z,9.00
2022-09-28T15:43:37.894Z,9.00
2022-09-28T15:46:18.350Z,9.00
2022-09-28T15:48:46.623Z,9.00
2022-09-28T15:51:13.623Z,9.10
2022-09-28T15:53:41.262Z,9.00
2022-09-28T15:56:10.234Z,9.00
2022-09-28T15:58:37.637Z,9.00
2022-09-28T16:01:16.824Z,9.00
2022-09-28T16:03:43.864Z,8.90
2022-09-28T16:06:10.901Z,8.90
2022-09-28T16:08:44.907Z,8.90
2022-09-28T16:11:25.839Z,8.90
2022-09-28T16:13:56.559Z,8.80
2022-09-28T16:16:28.147Z,8.80
2022-09-28T16:18:55.535Z,8.70
2022-09-28T16:21:28.323Z,8.70
2022-09-28T16:23:58.339Z,8.60
2022-09-28T16:26:35.434Z,8.60
2022-09-28T16:29:06.224Z,8.60
2022-09-28T16:31:34.308Z,8.50
2022-09-28T16:34:01.735Z,8.50
2022-09-28T16:36:29.950Z,8.50
2022-09-28T16:38:57.242Z,8.50
2022-09-28T16:41:27.269Z,8.50
2022-09-28T16:43:56.297Z,8.50
2022-09-28T16:46:23.735Z,8.50
2022-09-28T16:48:50.758Z,8.60
2022-09-28T16:51:18.243Z,8.50
2022-09-28T16:54:04.174Z,8.50
2022-09-28T16:56:31.886Z,8.50
2022-09-28T16:58:58.894Z,8.50
2022-09-28T17:01:25.988Z,8.60
2022-09-28T17:03:53.084Z,8.50
2022-09-28T17:06:20.778Z,8.50
2022-09-28T17:08:47.906Z,8.60
2022-09-28T17:11:19.305Z,8.70
2022-09-28T17:13:56.643Z,8.70
2022-09-28T17:16:49.345Z,8.70
2022-09-28T17:19:17.744Z,8.70
2022-09-28T17:21:44.915Z,8.70
2022-09-28T17:24:12.035Z,8.70
2022-09-28T17:26:39.586Z,8.60
2022-09-28T17:29:09.631Z,8.70
2022-09-28T17:31:36.701Z,8.50
2022-09-28T17:34:03.722Z,8.50
2022-09-28T17:36:30.900Z,8.50
2022-09-28T17:38:58.206Z,8.60
2022-09-28T17:41:25.256Z,8.50
2022-09-28T17:43:52.332Z,8.60
2022-09-28T17:46:26.123Z,8.70
2022-09-28T17:48:55.036Z,8.80
2022-09-28T17:51:23.642Z,8.70
2022-09-28T17:53:50.741Z,8.70
2022-09-28T17:56:17.744Z,8.70
2022-09-28T17:58:44.747Z,8.80
2022-09-28T18:01:12.001Z,8.70
2022-09-28T18:03:39.108Z,8.70
2022-09-28T18:06:06.853Z,8.70
2022-09-28T18:08:34.058Z,8.60
2022-09-28T18:11:01.697Z,8.40
2022-09-28T18:13:28.717Z,8.40
2022-09-28T18:15:55.822Z,8.40
2022-09-28T18:18:23.305Z,8.40
2022-09-28T18:20:50.347Z,8.30
2022-09-28T18:23:17.366Z,8.30
2022-09-28T18:25:44.618Z,8.40
2022-09-28T18:28:12.013Z,8.30
2022-09-28T18:30:39.715Z,8.20
2022-09-28T18:33:06.767Z,8.20
2022-09-28T18:35:33.775Z,8.20
2022-09-28T18:38:00.939Z,8.20
2022-09-28T18:40:28.022Z,8.20
2022-09-28T18:42:55.058Z,8.10
2022-09-28T18:45:22.072Z,8.10
2022-09-28T18:47:49.087Z,8.10
2022-09-28T18:50:16.111Z,8.00
2022-09-28T18:52:43.408Z,8.10
2022-09-28T18:55:10.767Z,8.10
2022-09-28T18:57:38.234Z,8.20
2022-09-28T19:00:05.794Z,8.20
2022-09-28T19:02:32.896Z,8.20
2022-09-28T19:05:00.002Z,8.20
2022-09-28T19:07:27.043Z,8.20
2022-09-28T19:09:54.149Z,8.20
2022-09-28T19:12:21.235Z,8.30
2022-09-28T19:14:48.249Z,8.30
2022-09-28T19:17:15.302Z,8.20
2022-09-28T19:19:42.754Z,8.20
2022-09-28T19:22:09.894Z,8.10
2022-09-28T19:24:36.911Z,8.00
2022-09-28T19:27:03.951Z,8.00
2022-09-28T19:29:30.964Z,8.00
2022-09-28T19:31:58.106Z,8.00
2022-09-28T19:34:27.074Z,8.00
2022-09-28T19:36:54.208Z,8.00
2022-09-28T19:39:21.275Z,8.00
2022-09-28T19:41:51.458Z,8.00
2022-09-28T19:44:25.342Z,8.00
2022-09-28T19:46:56.554Z,8.00
2022-09-28T19:49:24.070Z,8.00
2022-09-28T19:52:11.463Z,7.90
2022-09-28T19:54:39.609Z,8.00
2022-09-28T19:57:08.536Z,8.00
2022-09-28T19:59:36.624Z,7.90
2022-09-28T20:02:04.631Z,7.90
2022-09-28T20:04:31.669Z,7.90
2022-09-28T20:06:58.928Z,7.90
2022-09-28T20:09:25.957Z,8.00
2022-09-28T20:11:53.084Z,8.00
2022-09-28T20:14:21.481Z,8.00
2022-09-28T20:16:50.571Z,8.00
2022-09-28T20:19:20.946Z,8.00
2022-09-28T20:21:48.302Z,8.00
2022-09-28T20:24:16.498Z,7.90
2022-09-28T20:26:44.333Z,7.90
2022-09-28T20:29:11.559Z,7.90
2022-09-28T20:31:38.643Z,7.90
2022-09-28T20:34:05.761Z,7.90
2022-09-28T20:36:32.907Z,7.90
2022-09-28T20:39:02.939Z,8.00
2022-09-28T20:41:35.455Z,8.00
2022-09-28T20:44:05.817Z,8.00
2022-09-28T20:46:34.154Z,8.00
2022-09-28T20:49:01.355Z,8.00
2022-09-28T20:51:28.471Z,8.00
2022-09-28T20:53:55.913Z,8.00
2022-09-28T20:56:26.622Z,8.00
2022-09-28T20:58:53.831Z,8.00
2022-09-28T21:01:24.696Z,8.00
2022-09-28T21:03:55.589Z,8.00
2022-09-28T21:06:23.296Z,8.10
2022-09-28T21:08:50.326Z,8.10
2022-09-28T21:11:17.830Z,8.10
2022-09-28T21:13:44.897Z,8.10
2022-09-28T21:16:12.680Z,8.00
2022-09-28T21:18:39.922Z,8.10
2022-09-28T21:21:07.290Z,8.10
2022-09-28T21:23:34.626Z,8.10
2022-09-28T21:26:05.418Z,8.10
2022-09-28T21:28:32.593Z,8.20
2022-09-28T21:30:59.673Z,8.20
2022-09-28T21:33:26.731Z,8.20
2022-09-28T21:35:53.891Z,8.20
2022-09-28T21:38:20.927Z,8.10
2022-09-28T21:40:48.499Z,8.20
2022-09-28T21:43:16.119Z,8.20
2022-09-28T21:45:43.784Z,8.30
2022-09-28T21:48:11.185Z,8.30
2022-09-28T21:50:38.207Z,8.40
2022-09-28T21:53:05.225Z,8.30
2022-09-28T21:55:32.227Z,8.20
2022-09-28T21:57:59.233Z,8.20
2022-09-28T22:00:26.281Z,8.20
2022-09-28T22:02:53.342Z,8.20
2022-09-28T22:05:20.409Z,8.30
2022-09-28T22:07:47.479Z,8.20
2022-09-28T22:10:14.507Z,8.20
2022-09-28T22:12:41.631Z,8.20
2022-09-28T22:15:09.019Z,8.20
2022-09-28T22:17:36.038Z,8.10
2022-09-28T22:20:03.450Z,8.10
2022-09-28T22:22:30.465Z,8.20
2022-09-28T22:24:57.463Z,8.10
2022-09-28T22:27:24.478Z,8.00
2022-09-28T22:29:51.937Z,8.10
2022-09-28T22:32:19.043Z,8.20
2022-09-28T22:34:46.096Z,8.20
2022-09-28T22:37:13.110Z,8.10
2022-09-28T22:39:41.058Z,8.20
2022-09-28T22:42:08.249Z,8.30
2022-09-28T22:44:35.827Z,8.30
2022-09-28T22:47:03.463Z,8.40
2022-09-28T22:49:31.491Z,8.40
2022-09-28T22:51:58.523Z,8.50
2022-09-28T22:54:25.648Z,8.50
2022-09-28T22:56:52.738Z,8.50
2022-09-28T22:59:19.913Z,8.60
2022-09-28T23:01:47.225Z,8.50
2022-09-28T23:04:14.318Z,8.40
2022-09-28T23:06:41.333Z,8.50
2022-09-28T23:09:08.343Z,8.50
2022-09-28T23:11:35.391Z,8.60
2022-09-28T23:14:04.034Z,8.60
2022-09-28T23:16:31.151Z,8.60
2022-09-28T23:18:58.258Z,8.60
2022-09-28T23:21:25.855Z,8.60
2022-09-28T23:23:53.947Z,8.60
2022-09-28T23:26:22.207Z,8.50
2022-09-28T23:28:49.286Z,8.40
2022-09-28T23:31:17.230Z,8.40
2022-09-28T23:33:44.356Z,8.50
2022-09-28T23:36:11.393Z,8.40
2022-09-28T23:38:38.515Z,8.30
2022-09-28T23:41:05.688Z,8.40
2022-09-28T23:43:32.946Z,8.40
2022-09-28T23:46:00.056Z,8.40
2022-09-28T23:48:27.128Z,8.40
2022-09-28T23:50:54.147Z,8.40
2022-09-28T23:53:21.168Z,8.50
2022-09-28T23:55:48.246Z,8.50
2022-09-28T23:58:15.267Z,8.50
